Time;durP1;ratioP1;P1;durP2;ratioP2;P2;SDS_P1;SDS_P2;PMS_P1;PMS_P2;Temp;Humidity;BMP_temperature;BMP_pressure;BME280_temperature;BME280_humidity;BME280_pressure;Samples;Min_cycle;Max_cycle;Signal;HPM_P1;HPM_P2
2023/01/30 00:01:48;;;;;;;5.97;5.67;;;15.40;63.70;;;;;;5069580;28;43387;-77
2023/01/30 00:04:16;;;;;;;6.10;5.80;;;15.40;63.30;;;;;;5068530;28;44066;-75
2023/01/30 00:06:44;;;;;;;5.90;5.70;;;15.40;63.20;;;;;;5068889;28;43415;-73
2023/01/30 00:09:14;;;;;;;5.30;5.10;;;15.40;63.20;;;;;;5067500;28;43420;-76
2023/01/30 00:11:45;;;;;;;6.17;5.87;;;15.30;63.30;;;;;;5069233;28;43392;-76
2023/01/30 00:14:13;;;;;;;5.63;5.43;;;15.30;63.60;;;;;;5062223;28;43760;-74
2023/01/30 00:16:42;;;;;;;5.70;5.50;;;15.30;64.30;;;;;;5062425;28;45508;-75
2023/01/30 00:19:10;;;;;;;5.60;5.40;;;15.30;63.50;;;;;;5068513;28;43412;-74
2023/01/30 00:21:38;;;;;;;6.00;5.80;;;15.30;63.50;;;;;;5069091;28;43952;-73
2023/01/30 00:24:06;;;;;;;6.23;5.93;;;15.20;63.50;;;;;;5067350;28;43922;-75
2023/01/30 00:26:36;;;;;;;5.70;5.50;;;15.20;63.70;;;;;;5073111;28;45297;-75
2023/01/30 00:29:04;;;;;;;5.47;5.27;;;15.20;63.80;;;;;;5068674;28;43383;-75
2023/01/30 00:31:32;;;;;;;5.90;5.70;;;15.20;63.90;;;;;;5069045;28;43440;-76
2023/01/30 00:34:00;;;;;;;6.13;5.83;;;15.20;64.10;;;;;;5061426;28;43744;-74
2023/01/30 00:36:28;;;;;;;5.67;5.47;;;15.20;63.90;;;;;;5068337;28;43483;-77
2023/01/30 00:38:57;;;;;;;5.93;5.73;;;15.20;63.90;;;;;;5068477;28;43899;-72
2023/01/30 00:47:03;;;;;;;5.60;5.40;;;15.20;63.90;;;;;;5067199;28;43565;-76
2023/01/30 00:47:07;;;;;;;5.73;5.53;;;15.10;63.90;;;;;;5068486;28;43375;-76
2023/01/30 00:49:36;;;;;;;6.43;6.13;;;15.10;64.00;;;;;;5066585;28;43475;-77
2023/01/30 00:52:04;;;;;;;5.77;5.57;;;15.10;64.20;;;;;;5066864;28;43508;-76
2023/01/30 00:54:32;;;;;;;6.00;5.70;;;15.20;64.30;;;;;;5060149;28;46060;-74
2023/01/30 00:57:00;;;;;;;6.40;6.10;;;15.30;63.90;;;;;;5067791;28;43967;-74
2023/01/30 00:59:29;;;;;;;5.50;5.30;;;15.40;63.70;;;;;;5066999;28;43396;-76
2023/01/30 01:01:57;;;;;;;6.20;5.90;;;15.40;63.30;;;;;;5066712;28;43550;-76
2023/01/30 01:04:25;;;;;;;5.87;5.67;;;15.40;63.20;;;;;;5065544;28;45931;-75
2023/01/30 01:06:53;;;;;;;5.70;5.50;;;15.30;63.40;;;;;;5067808;28;43356;-76
2023/01/30 01:09:21;;;;;;;6.33;6.07;;;15.30;63.50;;;;;;5066387;28;43422;-76
2023/01/30 01:11:49;;;;;;;5.80;5.60;;;15.20;63.70;;;;;;5060939;28;43476;-77
2023/01/30 01:14:17;;;;;;;6.20;5.90;;;15.30;63.60;;;;;;5067463;28;43862;-74
2023/01/30 01:16:46;;;;;;;5.80;5.60;;;15.20;63.60;;;;;;5067412;28;43435;-76
2023/01/30 01:19:14;;;;;;;6.50;6.20;;;15.20;63.70;;;;;;5067253;28;43949;-74
2023/01/30 01:21:42;;;;;;;6.13;5.90;;;15.20;63.70;;;;;;5067845;28;43479;-76
2023/01/30 01:24:12;;;;;;;5.50;5.30;;;15.20;63.80;;;;;;5071099;28;43812;-75
2023/01/30 01:26:41;;;;;;;5.93;5.73;;;15.20;63.90;;;;;;5065645;28;44517;-75
2023/01/30 01:29:12;;;;;;;5.93;5.73;;;15.10;63.90;;;;;;5067582;28;43555;-75
2023/01/30 01:31:40;;;;;;;5.93;5.73;;;15.20;64.10;;;;;;5067530;28;43912;-77
2023/01/30 01:34:09;;;;;;;5.60;5.40;;;15.10;63.80;;;;;;5066821;28;43704;-76
2023/01/30 01:36:38;;;;;;;6.03;5.83;;;15.20;63.90;;;;;;5062327;28;43866;-74
2023/01/30 01:39:22;;;;;;;5.97;5.77;;;15.10;63.80;;;;;;5065120;28;43539;-74
2023/01/30 01:41:49;;;;;;;5.73;5.50;;;15.10;63.90;;;;;;5066325;28;44179;-75
2023/01/30 01:44:17;;;;;;;5.97;5.67;;;15.10;64.00;;;;;;5067126;28;44107;-76
2023/01/30 01:46:47;;;;;;;6.17;5.87;;;15.10;64.00;;;;;;5065712;28;44640;-75
2023/01/30 01:49:20;;;;;;;6.40;6.10;;;15.10;64.30;;;;;;5065091;28;43366;-76
2023/01/30 01:51:51;;;;;;;5.70;5.40;;;15.20;64.20;;;;;;5066028;28;43447;-76
2023/01/30 01:54:21;;;;;;;6.37;6.07;;;15.30;63.80;;;;;;5065286;28;45591;-75
2023/01/30 01:56:49;;;;;;;6.07;5.87;;;15.40;63.40;;;;;;5066816;28;44044;-74
2023/01/30 01:59:21;;;;;;;6.30;6.00;;;15.40;63.10;;;;;;5065565;28;43418;-76
2023/01/30 02:01:49;;;;;;;5.70;5.43;;;15.40;63.10;;;;;;5065827;28;43538;-76
2023/01/30 02:05:00;;;;;;;6.63;6.27;;;15.40;63.20;;;;;;5066918;28;43578;-74
2023/01/30 02:07:07;;;;;;;6.67;6.37;;;15.30;63.40;;;;;;5064879;28;44646;-75
2023/01/30 02:09:34;;;;;;;6.13;5.93;;;15.30;63.60;;;;;;5065412;28;43441;-76
2023/01/30 02:12:03;;;;;;;5.87;5.67;;;15.30;63.50;;;;;;5067331;28;43447;-76
2023/01/30 02:14:32;;;;;;;6.00;5.80;;;15.20;63.40;;;;;;5064898;28;46330;-76
2023/01/30 02:17:00;;;;;;;5.73;5.53;;;15.20;63.50;;;;;;5062146;28;44782;-76
2023/01/30 02:19:34;;;;;;;5.80;5.60;;;15.20;63.70;;;;;;5069335;28;43437;-74
2023/01/30 02:22:19;;;;;;;5.73;5.53;;;15.20;63.80;;;;;;5079272;28;43499;-76
2023/01/30 02:25:08;;;;;;;6.00;5.80;;;15.10;63.80;;;;;;5049427;28;45607;-76
2023/01/30 02:28:11;;;;;;;6.40;6.10;;;15.10;64.00;;;;;;5064973;28;43553;-76
2023/01/30 02:31:02;;;;;;;6.27;5.97;;;15.10;63.80;;;;;;5035777;28;43582;-77
2023/01/30 02:33:35;;;;;;;5.90;5.70;;;15.20;63.90;;;;;;5061729;28;44038;-76
2023/01/30 02:36:06;;;;;;;5.53;5.33;;;15.10;63.80;;;;;;5064501;28;45748;-78
2023/01/30 02:38:38;;;;;;;6.10;5.80;;;15.10;63.90;;;;;;5064430;28;45044;-76
2023/01/30 02:41:17;;;;;;;6.20;5.93;;;15.10;64.00;;;;;;5064864;28;43940;-77
2023/01/30 02:43:49;;;;;;;6.23;5.93;;;15.10;64.00;;;;;;5065184;28;43601;-75
2023/01/30 02:46:20;;;;;;;6.43;6.13;;;15.10;64.10;;;;;;5058555;28;43844;-76
2023/01/30 02:48:51;;;;;;;6.17;5.90;;;15.10;64.00;;;;;;5058342;28;44462;-77
2023/01/30 02:51:20;;;;;;;6.40;6.10;;;15.10;64.00;;;;;;5064688;28;43462;-75
2023/01/30 02:53:49;;;;;;;6.20;6.00;;;15.10;64.00;;;;;;5064612;28;43438;-76
2023/01/30 02:56:18;;;;;;;6.20;6.00;;;15.10;64.00;;;;;;5064431;28;45647;-75
2023/01/30 02:58:49;;;;;;;6.37;6.07;;;15.10;64.10;;;;;;5064585;28;44468;-75
2023/01/30 03:01:37;;;;;;;6.20;5.90;;;15.00;64.00;;;;;;5064222;28;43379;-75
2023/01/30 03:04:30;;;;;;;6.30;6.10;;;15.10;64.30;;;;;;5066567;28;44054;-74
2023/01/30 03:07:08;;;;;;;6.77;6.47;;;15.10;64.30;;;;;;5059106;28;46614;-76
2023/01/30 03:09:40;;;;;;;6.77;6.47;;;15.20;63.90;;;;;;5060053;28;43465;-74
2023/01/30 03:12:11;;;;;;;6.00;5.80;;;15.30;63.50;;;;;;5064165;28;43445;-75
2023/01/30 03:14:42;;;;;;;6.47;6.17;;;15.40;63.20;;;;;;5065735;28;43451;-75
2023/01/30 03:17:12;;;;;;;5.97;5.77;;;15.40;63.30;;;;;;5067080;28;45718;-74
2023/01/30 03:19:40;;;;;;;6.20;6.00;;;15.30;63.30;;;;;;5064082;28;44446;-77
2023/01/30 03:22:08;;;;;;;6.17;5.93;;;15.20;63.40;;;;;;5064233;28;43368;-76
2023/01/30 03:24:36;;;;;;;6.23;6.03;;;15.20;63.60;;;;;;5064499;28;43423;-76
2023/01/30 03:27:06;;;;;;;5.87;5.57;;;15.20;63.70;;;;;;5065873;28;43801;-73
2023/01/30 03:29:34;;;;;;;5.87;5.67;;;15.20;63.80;;;;;;5068079;28;44324;-75
2023/01/30 03:32:02;;;;;;;6.20;5.90;;;15.10;63.80;;;;;;5069493;28;43378;-77
2023/01/30 03:34:32;;;;;;;6.03;5.83;;;15.10;63.90;;;;;;5067142;28;43450;-75
2023/01/30 03:37:00;;;;;;;6.40;6.17;;;15.10;64.00;;;;;;5068697;28;43807;-77
2023/01/30 03:39:28;;;;;;;6.57;6.27;;;15.10;64.20;;;;;;5069124;28;43429;-75
2023/01/30 03:41:56;;;;;;;6.40;6.10;;;15.00;64.30;;;;;;5069616;28;43356;-76
2023/01/30 03:44:24;;;;;;;5.57;5.37;;;15.10;64.10;;;;;;5068159;28;43869;-76
2023/01/30 03:46:52;;;;;;;5.80;5.60;;;15.10;64.10;;;;;;5067601;28;43823;-75
2023/01/30 03:49:21;;;;;;;6.40;6.10;;;15.00;64.10;;;;;;5065663;28;45188;-74
2023/01/30 03:51:50;;;;;;;6.40;6.20;;;15.00;64.10;;;;;;5067449;28;43791;-76
2023/01/30 03:54:19;;;;;;;6.33;6.03;;;15.00;64.10;;;;;;5068889;28;43465;-76
2023/01/30 03:56:47;;;;;;;6.20;5.90;;;15.00;64.10;;;;;;5066915;28;43947;-73
2023/01/30 03:59:15;;;;;;;6.13;5.83;;;15.00;64.20;;;;;;5067538;28;44933;-74
2023/01/30 04:01:50;;;;;;;6.00;5.80;;;15.10;64.40;;;;;;5067307;28;43367;-76
2023/01/30 04:04:18;;;;;;;6.47;6.27;;;15.20;64.20;;;;;;5067911;28;43515;-74
2023/01/30 04:06:46;;;;;;;6.60;6.30;;;15.30;63.70;;;;;;5066968;28;45729;-77
2023/01/30 04:09:16;;;;;;;6.53;6.23;;;15.30;63.40;;;;;;5066659;28;43807;-75
2023/01/30 04:11:47;;;;;;;6.60;6.30;;;15.30;63.30;;;;;;5068890;28;43436;-75
2023/01/30 04:14:19;;;;;;;6.43;6.13;;;15.30;63.50;;;;;;5061632;28;43498;-74
2023/01/30 04:17:16;;;;;;;6.40;6.10;;;15.20;63.40;;;;;;5065386;28;44055;-74
2023/01/30 04:20:02;;;;;;;6.10;5.90;;;15.20;63.80;;;;;;5064090;28;43428;-75
2023/01/30 04:22:33;;;;;;;6.90;6.60;;;15.20;63.60;;;;;;5077969;28;43428;-76
2023/01/30 04:25:02;;;;;;;5.90;5.70;;;15.20;63.70;;;;;;5067218;28;43542;-74
2023/01/30 04:27:30;;;;;;;6.17;5.90;;;15.10;63.70;;;;;;5066832;28;43952;-74
2023/01/30 04:30:11;;;;;;;6.23;5.87;;;15.10;63.80;;;;;;5068553;28;43392;-77
2023/01/30 04:32:40;;;;;;;6.30;6.07;;;15.10;63.90;;;;;;5066832;28;43476;-76
2023/01/30 04:35:10;;;;;;;6.20;5.90;;;15.00;63.90;;;;;;5066169;28;43609;-74
2023/01/30 04:37:39;;;;;;;6.43;6.17;;;15.00;64.10;;;;;;5066609;28;44007;-76
2023/01/30 04:40:11;;;;;;;6.40;6.10;;;15.10;64.30;;;;;;5082365;28;43470;-77
2023/01/30 04:42:39;;;;;;;6.10;5.90;;;15.20;64.00;;;;;;5066933;28;43463;-76
2023/01/30 04:45:33;;;;;;;6.00;5.80;;;15.20;63.50;;;;;;5068454;28;43479;-76
2023/01/30 04:48:01;;;;;;;6.00;5.70;;;15.20;63.40;;;;;;5066254;28;43912;-76
2023/01/30 04:50:30;;;;;;;6.13;5.83;;;15.20;63.40;;;;;;5066515;28;43995;-76
2023/01/30 04:52:58;;;;;;;6.37;6.07;;;15.20;63.60;;;;;;5066645;28;43473;-75
2023/01/30 04:55:27;;;;;;;6.70;6.30;;;15.10;63.70;;;;;;5067259;28;44011;-72
2023/01/30 04:57:55;;;;;;;6.10;5.87;;;15.10;64.50;;;;;;5066290;28;46034;-74
2023/01/30 05:00:25;;;;;;;6.07;5.73;;;15.10;63.70;;;;;;5066468;28;44882;-77
2023/01/30 05:02:59;;;;;;;6.50;6.00;;;15.10;63.70;;;;;;5066615;28;43480;-75
2023/01/30 05:05:27;;;;;;;6.53;6.17;;;15.10;63.80;;;;;;5069454;28;43458;-76
2023/01/30 05:07:55;;;;;;;6.40;6.00;;;15.10;63.90;;;;;;5068830;28;43920;-76
2023/01/30 05:10:24;;;;;;;6.83;6.33;;;15.00;63.90;;;;;;5068017;28;43766;-77
2023/01/30 05:12:53;;;;;;;8.70;7.40;;;15.00;64.00;;;;;;5067855;28;43425;-76
2023/01/30 05:15:21;;;;;;;7.73;7.00;;;15.00;64.10;;;;;;5068141;28;43414;-75
2023/01/30 05:17:49;;;;;;;7.17;6.33;;;15.00;64.00;;;;;;5067389;28;43586;-75
2023/01/30 05:20:17;;;;;;;6.93;6.43;;;15.00;64.00;;;;;;5067612;28;43498;-75
2023/01/30 05:22:45;;;;;;;6.73;6.33;;;15.10;64.00;;;;;;5068028;28;43944;-75
2023/01/30 05:25:13;;;;;;;7.53;6.97;;;15.10;64.00;;;;;;5064650;28;43450;-77
2023/01/30 05:27:41;;;;;;;7.30;6.60;;;15.00;64.00;;;;;;5065836;28;45951;-77
2023/01/30 05:30:11;;;;;;;6.67;6.20;;;15.00;64.00;;;;;;5065685;28;44847;-75
2023/01/30 05:32:39;;;;;;;7.97;6.90;;;15.00;64.10;;;;;;5064663;28;43552;-76
2023/01/30 05:35:08;;;;;;;7.17;6.67;;;15.00;64.30;;;;;;5066622;28;43830;-76
2023/01/30 05:37:36;;;;;;;6.70;6.20;;;15.10;64.00;;;;;;5067039;28;43880;-77
2023/01/30 05:40:06;;;;;;;7.57;6.87;;;15.30;63.70;;;;;;5066156;28;44218;-76
2023/01/30 05:42:33;;;;;;;7.20;6.60;;;15.30;63.30;;;;;;5065092;28;43461;-77
2023/01/30 05:45:01;;;;;;;7.27;6.70;;;15.30;63.10;;;;;;5066304;28;44229;-76
2023/01/30 05:47:31;;;;;;;6.77;6.27;;;15.30;63.20;;;;;;5066575;28;43800;-76
2023/01/30 05:49:59;;;;;;;7.47;6.77;;;15.20;63.30;;;;;;5065317;28;44721;-75
2023/01/30 05:52:27;;;;;;;7.10;6.50;;;15.20;63.50;;;;;;5065544;28;43429;-74
2023/01/30 05:54:54;;;;;;;7.50;6.80;;;15.20;63.60;;;;;;5063274;28;43639;-76
2023/01/30 05:57:22;;;;;;;6.67;6.17;;;15.20;63.50;;;;;;5063571;28;44569;-77
2023/01/30 05:59:50;;;;;;;6.63;6.13;;;15.10;63.50;;;;;;5064884;28;44791;-76
2023/01/30 06:02:18;;;;;;;6.37;5.97;;;15.10;63.60;;;;;;5066994;28;43462;-74
2023/01/30 06:04:47;;;;;;;5.97;5.63;;;15.10;63.70;;;;;;5062937;28;44045;-74
2023/01/30 06:07:15;;;;;;;6.67;6.17;;;15.10;63.80;;;;;;5065306;28;45616;-76
2023/01/30 06:09:43;;;;;;;6.43;6.03;;;15.00;63.80;;;;;;5066803;28;43375;-72
2023/01/30 06:12:11;;;;;;;6.70;6.30;;;15.10;64.10;;;;;;5065591;28;43437;-76
2023/01/30 06:14:39;;;;;;;6.20;5.70;;;15.10;63.90;;;;;;5065406;28;43567;-75
2023/01/30 06:17:07;;;;;;;6.30;5.90;;;15.10;63.90;;;;;;5066597;28;43828;-76
2023/01/30 06:19:35;;;;;;;6.03;5.63;;;15.00;63.80;;;;;;5064080;28;43435;-77
2023/01/30 06:22:04;;;;;;;6.30;5.90;;;15.00;63.90;;;;;;5066688;28;43385;-76
2023/01/30 06:24:32;;;;;;;6.70;6.20;;;15.00;64.00;;;;;;5066509;28;43808;-74
2023/01/30 06:27:01;;;;;;;6.57;6.07;;;15.00;64.00;;;;;;5064602;28;44148;-76
2023/01/30 06:29:29;;;;;;;6.13;5.80;;;15.00;64.30;;;;;;5066422;28;43463;-76
2023/01/30 06:31:57;;;;;;;6.80;6.37;;;15.00;64.20;;;;;;5065108;28;43417;-73
2023/01/30 06:34:25;;;;;;;6.50;6.10;;;15.20;63.90;;;;;;5066080;28;43415;-76
2023/01/30 06:36:53;;;;;;;6.23;5.83;;;15.20;64.10;;;;;;5065125;28;46018;-77
2023/01/30 06:39:22;;;;;;;6.37;5.97;;;15.20;63.40;;;;;;5064575;28;45161;-75
2023/01/30 06:41:50;;;;;;;5.37;5.07;;;15.20;63.40;;;;;;5066427;28;43408;-77
2023/01/30 06:44:18;;;;;;;5.97;5.57;;;15.20;63.50;;;;;;5066915;28;43438;-77
2023/01/30 06:46:46;;;;;;;6.10;5.60;;;15.10;63.50;;;;;;5065843;28;43845;-75
2023/01/30 06:49:14;;;;;;;5.80;5.50;;;15.10;63.90;;;;;;5064752;28;45095;-78
2023/01/30 06:51:41;;;;;;;5.80;5.50;;;15.10;63.70;;;;;;5066234;28;43458;-75
2023/01/30 06:54:09;;;;;;;5.60;5.30;;;15.10;63.70;;;;;;5064873;28;43618;-77
2023/01/30 06:56:39;;;;;;;5.87;5.47;;;15.10;63.70;;;;;;5065828;28;43966;-74
2023/01/30 06:59:07;;;;;;;5.50;5.20;;;15.10;63.80;;;;;;5065843;28;43394;-75
2023/01/30 07:01:35;;;;;;;5.87;5.57;;;15.10;63.80;;;;;;5070866;28;43495;-76
2023/01/30 07:04:02;;;;;;;5.77;5.47;;;15.10;63.90;;;;;;5065371;28;43569;-76
2023/01/30 07:06:31;;;;;;;5.77;5.37;;;15.00;63.90;;;;;;5064366;28;45436;-75
2023/01/30 07:08:59;;;;;;;6.10;5.70;;;15.10;64.20;;;;;;5065730;28;43981;-76
2023/01/30 07:11:27;;;;;;;5.80;5.50;;;15.10;64.00;;;;;;5064600;28;43463;-75
2023/01/30 07:13:56;;;;;;;5.70;5.40;;;15.20;63.60;;;;;;5066534;28;43513;-76
2023/01/30 07:16:28;;;;;;;5.67;5.30;;;15.30;63.50;;;;;;5064448;28;45571;-74
2023/01/30 07:18:57;;;;;;;5.57;5.27;;;15.20;63.30;;;;;;5066068;28;43424;-77
2023/01/30 07:21:26;;;;;;;6.10;5.70;;;15.30;63.30;;;;;;5065240;28;43450;-76
2023/01/30 07:23:54;;;;;;;5.77;5.40;;;15.20;63.40;;;;;;5064361;28;43527;-76
2023/01/30 07:26:21;;;;;;;5.60;5.20;;;15.20;63.50;;;;;;5064892;28;45246;-75
2023/01/30 07:28:49;;;;;;;6.17;5.77;;;15.20;63.70;;;;;;5065684;28;44104;-74
2023/01/30 07:31:19;;;;;;;5.23;4.97;;;15.20;63.50;;;;;;5064809;28;43397;-75
2023/01/30 07:33:47;;;;;;;4.90;4.70;;;15.20;63.50;;;;;;5064983;28;43482;-75
2023/01/30 07:36:15;;;;;;;5.07;4.70;;;15.20;63.60;;;;;;5065209;28;43926;-76
2023/01/30 07:38:43;;;;;;;5.03;4.83;;;15.10;63.60;;;;;;5065631;28;44002;-76
2023/01/30 07:41:11;;;;;;;4.87;4.67;;;15.10;63.70;;;;;;5065767;28;44047;-76
2023/01/30 07:43:38;;;;;;;5.57;5.27;;;15.10;63.60;;;;;;5081305;28;43629;-75
2023/01/30 07:46:06;;;;;;;6.43;5.70;;;15.10;63.30;;;;;;5065557;28;43939;-76
2023/01/30 07:48:36;;;;;;;5.33;4.93;;;15.10;63.30;;;;;;5065718;28;43368;-75
2023/01/30 07:51:04;;;;;;;5.30;5.00;;;15.10;63.30;;;;;;5059184;28;43444;-76
2023/01/30 07:53:32;;;;;;;5.30;5.00;;;15.10;63.30;;;;;;5062939;28;43514;-77
2023/01/30 07:55:59;;;;;;;5.37;5.13;;;15.10;63.40;;;;;;5061331;28;43852;-76
2023/01/30 07:58:27;;;;;;;4.73;4.53;;;15.10;63.50;;;;;;5060453;28;43450;-76
2023/01/30 08:00:57;;;;;;;4.87;4.67;;;15.10;63.70;;;;;;5074386;28;44069;-75
2023/01/30 08:03:25;;;;;;;5.70;5.20;;;15.00;63.60;;;;;;5062119;28;43416;-77
2023/01/30 08:05:54;;;;;;;5.50;5.20;;;15.10;64.00;;;;;;5062967;28;44409;-76
2023/01/30 08:08:22;;;;;;;4.83;4.63;;;15.10;63.70;;;;;;5080608;28;44970;-76
2023/01/30 08:10:50;;;;;;;4.77;4.57;;;15.30;63.50;;;;;;5065356;28;43378;-76
2023/01/30 08:13:18;;;;;;;4.50;4.30;;;15.30;63.00;;;;;;5064642;28;43637;-76
2023/01/30 08:15:46;;;;;;;4.73;4.53;;;15.40;62.90;;;;;;5069045;28;43831;-77
2023/01/30 08:18:14;;;;;;;4.33;4.13;;;15.30;62.80;;;;;;5066064;28;43482;-76
2023/01/30 08:20:43;;;;;;;5.20;4.90;;;15.30;63.00;;;;;;5064610;28;43900;-76
2023/01/30 08:23:12;;;;;;;4.63;4.43;;;15.30;63.20;;;;;;5065314;28;43510;-77
2023/01/30 08:25:40;;;;;;;5.00;4.80;;;15.20;63.20;;;;;;5067796;28;43833;-75
2023/01/30 08:28:08;;;;;;;4.90;4.70;;;15.20;63.30;;;;;;5068702;28;43377;-76
2023/01/30 08:30:36;;;;;;;4.50;4.30;;;15.20;63.40;;;;;;5068724;28;43384;-76
2023/01/30 08:33:04;;;;;;;3.93;3.83;;;15.20;63.50;;;;;;5068625;28;43400;-75
2023/01/30 08:35:32;;;;;;;4.40;4.30;;;15.20;63.40;;;;;;5068148;28;43862;-72
2023/01/30 08:38:02;;;;;;;4.53;4.33;;;15.20;63.50;;;;;;5066677;28;44341;-75
2023/01/30 08:40:31;;;;;;;4.70;4.50;;;15.10;63.50;;;;;;5068277;28;43481;-76
2023/01/30 08:42:59;;;;;;;4.20;4.00;;;15.10;63.70;;;;;;5084218;27;43633;-74
2023/01/30 08:45:27;;;;;;;3.97;3.87;;;15.10;63.60;;;;;;5068177;28;43939;-75
2023/01/30 08:47:58;;;;;;;4.53;4.33;;;15.10;63.70;;;;;;5067039;28;44692;-74
2023/01/30 08:50:26;;;;;;;4.43;4.23;;;15.10;63.70;;;;;;5068140;28;43427;-77
2023/01/30 08:52:54;;;;;;;4.17;4.07;;;15.10;63.70;;;;;;5061844;28;43348;-75
2023/01/30 08:55:22;;;;;;;4.77;4.47;;;15.10;63.70;;;;;;5068536;28;43849;-76
2023/01/30 08:57:51;;;;;;;4.03;3.93;;;15.10;63.70;;;;;;5064138;28;43976;-75
2023/01/30 09:00:21;;;;;;;4.43;4.27;;;15.10;63.80;;;;;;5060638;28;43478;-75
2023/01/30 09:02:49;;;;;;;4.00;3.90;;;15.10;64.00;;;;;;5068283;28;43446;-75
2023/01/30 09:05:17;;;;;;;4.00;3.80;;;15.20;63.90;;;;;;5068145;28;43892;-76
2023/01/30 09:07:44;;;;;;;3.83;3.73;;;15.30;63.50;;;;;;5066403;28;43538;-76
2023/01/30 09:10:12;;;;;;;4.00;3.90;;;15.30;63.20;;;;;;5066592;28;43432;-73
2023/01/30 09:12:40;;;;;;;3.97;3.87;;;15.30;63.20;;;;;;5068546;28;44114;-77
2023/01/30 09:15:10;;;;;;;3.57;3.47;;;15.30;63.30;;;;;;5067792;28;43930;-75
2023/01/30 09:17:38;;;;;;;3.80;3.70;;;15.30;63.40;;;;;;5066259;28;44810;-74
2023/01/30 09:20:07;;;;;;;4.00;3.90;;;15.20;63.50;;;;;;5067961;28;43481;-74
2023/01/30 09:22:35;;;;;;;3.80;3.70;;;15.20;63.40;;;;;;5068141;28;43829;-75
2023/01/30 09:25:03;;;;;;;3.80;3.70;;;15.20;63.40;;;;;;5066273;28;43602;-76
2023/01/30 09:27:31;;;;;;;3.50;3.40;;;15.20;63.50;;;;;;5067808;28;43482;-75
2023/01/30 09:29:59;;;;;;;3.60;3.50;;;15.20;63.60;;;;;;5067763;28;43939;-77
2023/01/30 09:32:29;;;;;;;3.53;3.43;;;15.10;63.50;;;;;;5066556;28;43799;-76
2023/01/30 09:34:56;;;;;;;3.40;3.30;;;15.10;63.70;;;;;;5060201;28;45666;-73
2023/01/30 09:37:24;;;;;;;3.90;3.80;;;15.10;63.70;;;;;;5066250;28;44712;-74
2023/01/30 09:39:52;;;;;;;3.60;3.50;;;15.10;63.90;;;;;;5066191;28;43449;-75
2023/01/30 09:42:59;;;;;;;3.30;3.20;;;15.10;63.80;;;;;;5067735;28;43439;-77
2023/01/30 09:45:45;;;;;;;3.53;3.43;;;15.10;63.80;;;;;;5063230;28;43596;-74
2023/01/30 09:48:20;;;;;;;3.30;3.20;;;15.10;63.80;;;;;;5066549;28;43459;-76
2023/01/30 09:51:21;;;;;;;3.50;3.40;;;15.10;63.90;;;;;;5064088;28;43934;-76
2023/01/30 09:54:08;;;;;;;3.10;3.00;;;15.10;64.00;;;;;;5061964;28;43416;-77
2023/01/30 09:56:36;;;;;;;3.60;3.50;;;15.00;64.00;;;;;;5063986;28;43602;-74
2023/01/30 09:59:05;;;;;;;3.70;3.60;;;15.10;64.20;;;;;;5067055;28;43418;-77
2023/01/30 10:01:36;;;;;;;3.43;3.33;;;15.20;64.00;;;;;;5065694;28;43386;-75
2023/01/30 10:04:13;;;;;;;3.27;3.17;;;15.30;63.50;;;;;;5067437;28;43924;-77
2023/01/30 10:06:46;;;;;;;3.20;3.10;;;15.30;63.20;;;;;;5066891;28;43793;-75
2023/01/30 10:09:16;;;;;;;3.13;3.03;;;15.30;63.20;;;;;;5066944;28;44005;-75
2023/01/30 10:11:52;;;;;;;3.23;3.13;;;15.30;63.30;;;;;;5067164;28;43376;-76
2023/01/30 10:14:36;;;;;;;3.60;3.50;;;15.20;63.40;;;;;;5065933;28;43494;-76
2023/01/30 10:17:10;;;;;;;3.30;3.20;;;15.20;63.70;;;;;;5066818;28;43610;-75
2023/01/30 10:19:57;;;;;;;3.20;3.10;;;15.20;63.50;;;;;;5065414;28;44341;-75
2023/01/30 10:22:33;;;;;;;2.93;2.83;;;15.10;63.50;;;;;;5064778;28;43387;-75
2023/01/30 10:25:07;;;;;;;3.17;3.07;;;15.20;63.70;;;;;;5060940;28;44026;-74
2023/01/30 10:27:36;;;;;;;3.07;2.97;;;15.10;63.70;;;;;;5066823;28;43854;-76
2023/01/30 10:30:05;;;;;;;2.90;2.80;;;15.10;63.80;;;;;;5064977;28;45686;-75
2023/01/30 10:32:42;;;;;;;3.23;3.13;;;15.10;63.80;;;;;;5066762;28;43426;-76
2023/01/30 10:35:16;;;;;;;2.87;2.80;;;15.00;64.00;;;;;;5065717;28;43428;-76
2023/01/30 10:37:46;;;;;;;2.97;2.87;;;15.00;63.80;;;;;;5064833;28;44238;-75
2023/01/30 10:40:17;;;;;;;2.60;2.60;;;15.10;63.90;;;;;;5065032;28;44415;-75
2023/01/30 10:42:49;;;;;;;2.93;2.87;;;15.00;63.80;;;;;;5079288;28;43405;-76
2023/01/30 10:45:19;;;;;;;2.90;2.80;;;15.10;64.00;;;;;;5068171;28;43550;-76
2023/01/30 10:47:56;;;;;;;2.83;2.73;;;15.00;64.00;;;;;;5066227;28;43601;-75
2023/01/30 10:50:28;;;;;;;3.00;2.90;;;15.00;64.00;;;;;;5065072;28;45779;-74
2023/01/30 10:52:59;;;;;;;3.07;2.97;;;15.00;64.20;;;;;;5062111;28;43371;-73
2023/01/30 10:55:31;;;;;;;2.80;2.80;;;15.10;64.30;;;;;;5060901;28;43379;-74
2023/01/30 10:58:09;;;;;;;2.90;2.80;;;15.10;64.00;;;;;;5061588;28;43829;-76
2023/01/30 11:00:39;;;;;;;2.40;2.40;;;15.30;63.60;;;;;;5066108;28;43526;-75
2023/01/30 11:03:20;;;;;;;3.00;2.90;;;15.30;63.30;;;;;;5066552;28;43490;-76
2023/01/30 11:05:50;;;;;;;2.53;2.53;;;15.30;63.30;;;;;;5067007;28;43392;-76
2023/01/30 11:08:21;;;;;;;2.70;2.70;;;15.30;63.40;;;;;;5065796;28;44142;-75
2023/01/30 11:10:49;;;;;;;2.50;2.50;;;15.20;63.40;;;;;;5065996;28;43418;-73
2023/01/30 11:13:18;;;;;;;2.47;2.47;;;15.20;63.80;;;;;;5064549;28;43402;-76
2023/01/30 11:15:47;;;;;;;2.80;2.70;;;15.20;63.60;;;;;;5066211;28;43544;-77
2023/01/30 11:18:15;;;;;;;2.57;2.57;;;15.20;63.70;;;;;;5066161;28;43689;-76
2023/01/30 11:21:06;;;;;;;2.57;2.57;;;15.10;63.70;;;;;;5060904;28;43415;-75
2023/01/30 11:23:34;;;;;;;2.20;2.20;;;15.10;63.80;;;;;;5064541;28;43355;-76
2023/01/30 11:26:03;;;;;;;2.40;2.40;;;15.10;64.00;;;;;;5064832;28;43642;-76
2023/01/30 11:28:41;;;;;;;2.40;2.40;;;15.10;64.00;;;;;;5065866;28;44805;-75
2023/01/30 11:31:17;;;;;;;2.40;2.40;;;15.10;64.20;;;;;;5065974;28;43825;-75
2023/01/30 11:33:59;;;;;;;2.57;2.57;;;15.10;64.00;;;;;;5064769;28;43416;-76
2023/01/30 11:36:30;;;;;;;2.33;2.30;;;15.00;64.00;;;;;;5066152;28;44051;-73
2023/01/30 11:38:59;;;;;;;2.30;2.30;;;15.00;64.00;;;;;;5062368;28;43791;-77
2023/01/30 11:41:27;;;;;;;2.87;2.77;;;15.00;64.10;;;;;;5067434;28;44041;-73
2023/01/30 11:44:00;;;;;;;2.60;2.50;;;15.00;64.00;;;;;;5065639;28;43371;-74
2023/01/30 11:46:30;;;;;;;2.30;2.30;;;15.00;64.10;;;;;;5061582;28;43548;-75
2023/01/30 11:49:00;;;;;;;2.47;2.47;;;15.00;64.20;;;;;;5065751;28;43599;-77
2023/01/30 11:51:51;;;;;;;2.57;2.40;;;15.00;64.40;;;;;;5069160;28;43386;-76
2023/01/30 11:54:20;;;;;;;2.40;2.40;;;15.10;64.30;;;;;;5067252;28;43484;-76
2023/01/30 11:56:49;;;;;;;2.27;2.27;;;15.20;64.00;;;;;;5069430;28;43545;-74
2023/01/30 11:59:23;;;;;;;2.27;2.27;;;15.20;63.50;;;;;;5067579;28;45902;-76
2023/01/30 12:01:51;;;;;;;2.47;2.47;;;15.30;63.50;;;;;;5068285;28;43621;-74
2023/01/30 12:04:20;;;;;;;2.37;2.30;;;15.20;63.50;;;;;;5069179;28;43450;-77
2023/01/30 12:06:49;;;;;;;2.40;2.40;;;15.20;63.40;;;;;;5067805;28;43503;-76
2023/01/30 12:09:31;;;;;;;2.50;2.40;;;15.20;63.70;;;;;;5066849;28;44011;-75
2023/01/30 12:11:59;;;;;;;2.20;2.20;;;15.10;63.80;;;;;;5068980;28;43485;-75
2023/01/30 12:14:35;;;;;;;2.50;2.40;;;15.10;63.70;;;;;;5069202;28;43427;-73
2023/01/30 12:17:08;;;;;;;2.20;2.20;;;15.10;63.80;;;;;;5067349;28;44025;-75
2023/01/30 12:19:43;;;;;;;2.33;2.33;;;15.10;63.80;;;;;;5066669;28;46208;-76
2023/01/30 12:22:19;;;;;;;2.40;2.40;;;15.00;63.80;;;;;;5067638;28;43476;-77
2023/01/30 12:24:51;;;;;;;2.17;2.17;;;15.10;64.00;;;;;;5068345;28;43455;-77
2023/01/30 12:27:21;;;;;;;2.30;2.30;;;15.00;64.00;;;;;;5069019;28;43397;-75
2023/01/30 12:29:54;;;;;;;2.43;2.43;;;15.00;64.20;;;;;;5068265;28;43657;-75
2023/01/30 12:32:25;;;;;;;2.03;2.03;;;15.00;64.00;;;;;;5062189;28;43339;-75
2023/01/30 12:34:53;;;;;;;2.23;2.23;;;15.00;64.00;;;;;;5068718;28;43414;-75
2023/01/30 12:37:39;;;;;;;2.33;2.33;;;15.00;64.10;;;;;;5067921;28;43463;-76
2023/01/30 12:40:14;;;;;;;2.20;2.20;;;15.00;64.10;;;;;;5068163;28;44038;-75
2023/01/30 12:42:53;;;;;;;2.17;2.17;;;15.00;64.20;;;;;;5068661;28;43390;-76
2023/01/30 12:45:22;;;;;;;2.43;2.43;;;15.00;64.20;;;;;;5068659;28;43423;-76
2023/01/30 12:48:22;;;;;;;2.63;2.60;;;14.90;64.40;;;;;;5067372;28;43588;-74
2023/01/30 12:51:00;;;;;;;2.17;2.17;;;15.10;64.40;;;;;;5064976;28;43933;-75
2023/01/30 12:53:36;;;;;;;2.50;2.50;;;15.20;64.00;;;;;;5067439;28;43445;-76
2023/01/30 12:56:20;;;;;;;2.20;2.20;;;15.20;63.50;;;;;;5068339;28;43414;-76
2023/01/30 12:58:50;;;;;;;2.20;2.20;;;15.20;63.40;;;;;;5065084;28;43526;-77
2023/01/30 13:01:23;;;;;;;2.17;2.17;;;15.20;63.50;;;;;;5065672;28;45619;-76
2023/01/30 13:03:55;;;;;;;2.20;2.20;;;15.20;63.80;;;;;;5068317;28;43973;-73
2023/01/30 13:06:32;;;;;;;2.40;2.40;;;15.10;63.90;;;;;;5062708;28;43508;-72
2023/01/30 13:09:09;;;;;;;2.47;2.40;;;15.10;63.90;;;;;;5066894;28;43415;-75
2023/01/30 13:11:42;;;;;;;2.10;2.10;;;15.10;63.90;;;;;;5066760;28;46105;-76